Terminal Aerodrome Forecast
Issued by NWS Portland, OR

Home | Current Version | Previous Version | Text Only | Print | Product List | Glossary On
Versions: 1 2 3 4 5 6 7 8 9 10 11 12 13 14 15 16 17 18 19 20 21 22 23 24
000
FTUS46 KPQR 312328
TAFTTD
TAF
KTTD 312328Z 0100/0124 VRB03KT P6SM VCSH FEW025 SCT060 BKN250
     FM010200 VRB03KT P6SM BKN250
     FM011100 VRB03KT P6SM BKN015
     FM011400 00000KT 2SM BR OVC004
     FM011800 30003KT P6SM BKN250=

USA.gov is the U.S. government's official web portal to all federal, state and local government web resources and services.